sensor_id;sensor_type;location;lat;lon;timestamp;P1;durP1;ratioP1;P2;durP2;ratioP2
27863;SDS011;15980;51.092;13.916;2023-06-22T00:02:00;11.38;;;7.57;;
27863;SDS011;15980;51.092;13.916;2023-06-22T00:12:01;9.90;;;6.70;;
27863;SDS011;15980;51.092;13.916;2023-06-22T00:22:01;11.50;;;7.57;;
27863;SDS011;15980;51.092;13.916;2023-06-22T00:32:02;13.80;;;7.85;;
27863;SDS011;15980;51.092;13.916;2023-06-22T00:42:02;10.57;;;7.13;;
27863;SDS011;15980;51.092;13.916;2023-06-22T00:52:03;10.53;;;7.47;;
27863;SDS011;15980;51.092;13.916;2023-06-22T01:02:03;13.00;;;8.15;;
27863;SDS011;15980;51.092;13.916;2023-06-22T01:12:04;12.65;;;8.13;;
27863;SDS011;15980;51.092;13.916;2023-06-22T01:22:07;14.07;;;7.38;;
27863;SDS011;15980;51.092;13.916;2023-06-22T01:32:09;14.93;;;9.23;;
27863;SDS011;15980;51.092;13.916;2023-06-22T01:42:10;16.35;;;10.93;;
27863;SDS011;15980;51.092;13.916;2023-06-22T01:52:12;16.55;;;10.52;;
27863;SDS011;15980;51.092;13.916;2023-06-22T02:02:12;17.92;;;10.32;;
27863;SDS011;15980;51.092;13.916;2023-06-22T02:12:17;14.98;;;10.10;;
27863;SDS011;15980;51.092;13.916;2023-06-22T02:22:21;16.20;;;10.05;;
27863;SDS011;15980;51.092;13.916;2023-06-22T02:32:21;19.55;;;10.40;;
27863;SDS011;15980;51.092;13.916;2023-06-22T02:42:21;15.23;;;10.25;;
27863;SDS011;15980;51.092;13.916;2023-06-22T02:52:22;17.08;;;11.73;;
27863;SDS011;15980;51.092;13.916;2023-06-22T03:02:22;19.55;;;12.52;;
27863;SDS011;15980;51.092;13.916;2023-06-22T03:12:22;17.02;;;12.13;;
27863;SDS011;15980;51.092;13.916;2023-06-22T03:22:23;17.40;;;11.90;;
27863;SDS011;15980;51.092;13.916;2023-06-22T03:32:23;17.67;;;11.85;;
27863;SDS011;15980;51.092;13.916;2023-06-22T03:42:23;18.00;;;11.00;;
27863;SDS011;15980;51.092;13.916;2023-06-22T03:52:24;18.02;;;11.32;;
27863;SDS011;15980;51.092;13.916;2023-06-22T04:02:24;24.17;;;12.25;;
27863;SDS011;15980;51.092;13.916;2023-06-22T04:12:25;19.00;;;12.20;;
27863;SDS011;15980;51.092;13.916;2023-06-22T04:22:25;16.48;;;11.30;;
27863;SDS011;15980;51.092;13.916;2023-06-22T04:32:25;15.13;;;10.32;;
27863;SDS011;15980;51.092;13.916;2023-06-22T04:42:26;19.02;;;11.50;;
27863;SDS011;15980;51.092;13.916;2023-06-22T04:52:26;15.17;;;9.97;;
27863;SDS011;15980;51.092;13.916;2023-06-22T05:02:26;18.23;;;10.48;;
27863;SDS011;15980;51.092;13.916;2023-06-22T05:12:27;14.63;;;10.20;;
27863;SDS011;15980;51.092;13.916;2023-06-22T05:22:28;19.20;;;10.53;;
27863;SDS011;15980;51.092;13.916;2023-06-22T05:32:28;15.95;;;10.05;;
27863;SDS011;15980;51.092;13.916;2023-06-22T05:42:29;12.93;;;9.95;;
27863;SDS011;15980;51.092;13.916;2023-06-22T05:52:29;14.95;;;9.65;;
27863;SDS011;15980;51.092;13.916;2023-06-22T06:02:29;16.48;;;10.32;;
27863;SDS011;15980;51.092;13.916;2023-06-22T06:12:29;14.07;;;10.43;;
27863;SDS011;15980;51.092;13.916;2023-06-22T06:22:30;17.65;;;10.40;;
27863;SDS011;15980;51.092;13.916;2023-06-22T06:32:30;16.88;;;11.32;;
27863;SDS011;15980;51.092;13.916;2023-06-22T06:42:30;16.05;;;10.48;;
27863;SDS011;15980;51.092;13.916;2023-06-22T06:52:31;14.00;;;10.00;;
27863;SDS011;15980;51.092;13.916;2023-06-22T07:02:31;13.95;;;10.63;;
27863;SDS011;15980;51.092;13.916;2023-06-22T07:12:31;15.00;;;10.32;;
27863;SDS011;15980;51.092;13.916;2023-06-22T07:22:31;14.43;;;10.13;;
27863;SDS011;15980;51.092;13.916;2023-06-22T07:32:32;14.30;;;11.20;;
27863;SDS011;15980;51.092;13.916;2023-06-22T07:42:32;14.07;;;9.85;;
27863;SDS011;15980;51.092;13.916;2023-06-22T07:52:32;14.10;;;10.02;;
27863;SDS011;15980;51.092;13.916;2023-06-22T08:02:33;18.98;;;9.35;;
27863;SDS011;15980;51.092;13.916;2023-06-22T08:12:33;14.77;;;9.48;;
27863;SDS011;15980;51.092;13.916;2023-06-22T08:22:33;12.77;;;8.30;;
27863;SDS011;15980;51.092;13.916;2023-06-22T08:32:33;18.20;;;9.40;;
27863;SDS011;15980;51.092;13.916;2023-06-22T08:42:34;11.37;;;9.37;;
27863;SDS011;15980;51.092;13.916;2023-06-22T08:52:35;10.98;;;6.78;;
27863;SDS011;15980;51.092;13.916;2023-06-22T09:02:36;8.40;;;6.55;;
27863;SDS011;15980;51.092;13.916;2023-06-22T09:12:36;12.37;;;8.97;;
27863;SDS011;15980;51.092;13.916;2023-06-22T09:22:36;11.52;;;7.97;;
27863;SDS011;15980;51.092;13.916;2023-06-22T09:32:36;9.80;;;7.00;;
27863;SDS011;15980;51.092;13.916;2023-06-22T09:42:37;12.65;;;7.78;;
27863;SDS011;15980;51.092;13.916;2023-06-22T09:52:37;10.18;;;7.22;;
27863;SDS011;15980;51.092;13.916;2023-06-22T10:02:37;10.68;;;7.68;;
27863;SDS011;15980;51.092;13.916;2023-06-22T10:12:41;9.57;;;7.43;;
27863;SDS011;15980;51.092;13.916;2023-06-22T10:22:43;9.48;;;8.20;;
27863;SDS011;15980;51.092;13.916;2023-06-22T10:32:44;12.55;;;7.70;;
27863;SDS011;15980;51.092;13.916;2023-06-22T10:42:44;9.93;;;8.07;;
27863;SDS011;15980;51.092;13.916;2023-06-22T10:52:45;11.48;;;7.32;;
27863;SDS011;15980;51.092;13.916;2023-06-22T11:02:45;10.68;;;7.78;;
27863;SDS011;15980;51.092;13.916;2023-06-22T11:12:45;11.67;;;7.37;;
27863;SDS011;15980;51.092;13.916;2023-06-22T11:22:45;9.88;;;7.63;;
27863;SDS011;15980;51.092;13.916;2023-06-22T11:32:46;12.88;;;7.53;;
27863;SDS011;15980;51.092;13.916;2023-06-22T11:42:46;11.50;;;7.80;;
27863;SDS011;15980;51.092;13.916;2023-06-22T11:52:46;10.00;;;7.50;;
27863;SDS011;15980;51.092;13.916;2023-06-22T12:02:47;11.85;;;7.93;;
27863;SDS011;15980;51.092;13.916;2023-06-22T12:12:47;12.05;;;7.88;;
27863;SDS011;15980;51.092;13.916;2023-06-22T12:22:47;10.13;;;7.50;;
27863;SDS011;15980;51.092;13.916;2023-06-22T12:32:47;12.60;;;7.72;;
27863;SDS011;15980;51.092;13.916;2023-06-22T12:42:48;9.35;;;7.22;;
27863;SDS011;15980;51.092;13.916;2023-06-22T12:52:48;11.02;;;6.68;;
27863;SDS011;15980;51.092;13.916;2023-06-22T13:02:48;9.07;;;7.18;;
27863;SDS011;15980;51.092;13.916;2023-06-22T13:22:49;9.13;;;7.80;;
27863;SDS011;15980;51.092;13.916;2023-06-22T13:42:49;11.43;;;7.82;;
27863;SDS011;15980;51.092;13.916;2023-06-22T13:52:50;12.98;;;8.05;;
27863;SDS011;15980;51.092;13.916;2023-06-22T14:02:50;10.70;;;8.07;;
27863;SDS011;15980;51.092;13.916;2023-06-22T14:12:50;11.18;;;7.97;;
27863;SDS011;15980;51.092;13.916;2023-06-22T14:22:50;10.13;;;8.07;;
27863;SDS011;15980;51.092;13.916;2023-06-22T14:32:51;14.85;;;8.02;;
27863;SDS011;15980;51.092;13.916;2023-06-22T14:42:51;11.13;;;8.35;;
27863;SDS011;15980;51.092;13.916;2023-06-22T14:52:51;9.95;;;7.63;;
27863;SDS011;15980;51.092;13.916;2023-06-22T15:02:52;11.10;;;8.10;;
27863;SDS011;15980;51.092;13.916;2023-06-22T15:12:52;15.13;;;7.50;;
27863;SDS011;15980;51.092;13.916;2023-06-22T15:22:52;15.45;;;8.15;;
27863;SDS011;15980;51.092;13.916;2023-06-22T15:32:53;10.30;;;8.10;;
27863;SDS011;15980;51.092;13.916;2023-06-22T15:52:53;12.05;;;8.93;;
27863;SDS011;15980;51.092;13.916;2023-06-22T16:02:53;14.18;;;8.93;;
27863;SDS011;15980;51.092;13.916;2023-06-22T16:12:54;13.95;;;9.02;;
27863;SDS011;15980;51.092;13.916;2023-06-22T16:22:54;11.95;;;9.18;;
27863;SDS011;15980;51.092;13.916;2023-06-22T16:32:56;15.75;;;11.23;;
27863;SDS011;15980;51.092;13.916;2023-06-22T16:42:56;12.73;;;8.73;;
27863;SDS011;15980;51.092;13.916;2023-06-22T16:52:57;13.13;;;9.13;;
27863;SDS011;15980;51.092;13.916;2023-06-22T17:02:57;16.77;;;9.60;;
27863;SDS011;15980;51.092;13.916;2023-06-22T17:13:02;14.30;;;8.90;;
27863;SDS011;15980;51.092;13.916;2023-06-22T17:23:03;10.68;;;9.35;;
27863;SDS011;15980;51.092;13.916;2023-06-22T17:33:03;12.48;;;8.77;;
27863;SDS011;15980;51.092;13.916;2023-06-22T17:43:08;19.50;;;9.50;;
27863;SDS011;15980;51.092;13.916;2023-06-22T17:53:09;13.07;;;9.43;;
27863;SDS011;15980;51.092;13.916;2023-06-22T18:03:10;14.38;;;9.55;;
27863;SDS011;15980;51.092;13.916;2023-06-22T18:13:12;13.45;;;9.15;;
27863;SDS011;15980;51.092;13.916;2023-06-22T18:23:13;16.85;;;10.48;;
27863;SDS011;15980;51.092;13.916;2023-06-22T18:33:14;17.58;;;10.45;;
27863;SDS011;15980;51.092;13.916;2023-06-22T18:43:19;24.92;;;11.45;;
27863;SDS011;15980;51.092;13.916;2023-06-22T19:03:28;16.60;;;10.65;;
27863;SDS011;15980;51.092;13.916;2023-06-22T19:13:29;17.00;;;11.35;;
27863;SDS011;15980;51.092;13.916;2023-06-22T19:23:31;17.90;;;11.37;;
27863;SDS011;15980;51.092;13.916;2023-06-22T19:33:32;17.40;;;11.20;;
27863;SDS011;15980;51.092;13.916;2023-06-22T19:43:33;17.73;;;10.90;;
27863;SDS011;15980;51.092;13.916;2023-06-22T19:53:33;15.32;;;11.02;;
27863;SDS011;15980;51.092;13.916;2023-06-22T20:03:37;16.83;;;11.80;;
27863;SDS011;15980;51.092;13.916;2023-06-22T20:13:47;16.98;;;11.40;;
27863;SDS011;15980;51.092;13.916;2023-06-22T20:23:48;19.05;;;11.13;;
27863;SDS011;15980;51.092;13.916;2023-06-22T20:34:01;18.00;;;10.70;;
27863;SDS011;15980;51.092;13.916;2023-06-22T20:44:03;18.05;;;11.82;;
27863;SDS011;15980;51.092;13.916;2023-06-22T20:54:03;19.23;;;12.18;;
27863;SDS011;15980;51.092;13.916;2023-06-22T21:04:04;15.32;;;11.35;;
27863;SDS011;15980;51.092;13.916;2023-06-22T21:14:05;20.02;;;11.07;;
27863;SDS011;15980;51.092;13.916;2023-06-22T21:24:05;16.17;;;10.73;;
27863;SDS011;15980;51.092;13.916;2023-06-22T21:34:06;14.77;;;11.43;;
27863;SDS011;15980;51.092;13.916;2023-06-22T21:44:06;18.75;;;11.25;;
27863;SDS011;15980;51.092;13.916;2023-06-22T21:54:06;15.48;;;12.10;;
27863;SDS011;15980;51.092;13.916;2023-06-22T22:04:06;18.05;;;12.82;;
27863;SDS011;15980;51.092;13.916;2023-06-22T22:14:07;23.33;;;15.20;;
27863;SDS011;15980;51.092;13.916;2023-06-22T22:24:07;25.70;;;17.73;;
27863;SDS011;15980;51.092;13.916;2023-06-22T22:34:07;27.58;;;17.63;;
27863;SDS011;15980;51.092;13.916;2023-06-22T22:44:08;30.10;;;18.85;;
27863;SDS011;15980;51.092;13.916;2023-06-22T22:54:08;30.63;;;21.70;;
27863;SDS011;15980;51.092;13.916;2023-06-22T23:04:09;37.72;;;22.77;;
27863;SDS011;15980;51.092;13.916;2023-06-22T23:14:09;0.00;;;0.00;;
27863;SDS011;15980;51.092;13.916;2023-06-22T23:24:09;0.63;;;0.63;;
27863;SDS011;15980;51.092;13.916;2023-06-22T23:34:10;8.70;;;2.15;;
27863;SDS011;15980;51.092;13.916;2023-06-22T23:44:10;4.00;;;1.30;;
27863;SDS011;15980;51.092;13.916;2023-06-22T23:54:11;0.00;;;0.00;;
